Time;durP1;ratioP1;P1;durP2;ratioP2;P2;SDS_P1;SDS_P2;PMS_P1;PMS_P2;Temp;Humidity;BMP_temperature;BMP_pressure;BME280_temperature;BME280_humidity;BME280_pressure;Samples;Min_cycle;Max_cycle;Signal;HPM_P1;HPM_P2
2021/07/03 00:00:08;;;;;;;8.43;6.47;;;15.90;99.90;;;;;;6079961;29;20200;-71
2021/07/03 00:03:10;;;;;;;9.43;6.70;;;15.90;99.90;;;;;;6068061;29;20225;-71
2021/07/03 00:06:13;;;;;;;11.20;8.23;;;16.00;99.90;;;;;;6064303;29;20200;-71
2021/07/03 00:09:16;;;;;;;8.50;7.17;;;15.90;99.90;;;;;;6064384;29;20255;-71
2021/07/03 00:12:18;;;;;;;9.10;6.70;;;16.00;99.90;;;;;;6063176;29;20256;-71
2021/07/03 00:15:21;;;;;;;9.50;7.03;;;16.00;99.90;;;;;;6078926;29;20564;-72
2021/07/03 00:18:24;;;;;;;8.17;7.10;;;16.00;99.90;;;;;;6040834;29;20206;-72
2021/07/03 00:21:27;;;;;;;9.40;6.73;;;16.00;99.90;;;;;;6041047;29;20225;-71
2021/07/03 00:24:29;;;;;;;9.30;7.23;;;16.00;99.90;;;;;;6057012;29;20297;-70
2021/07/03 00:27:31;;;;;;;8.70;6.53;;;16.00;99.90;;;;;;6056209;29;20233;-71
2021/07/03 00:30:33;;;;;;;8.70;6.53;;;16.00;99.90;;;;;;6040057;29;20265;-71
2021/07/03 00:33:36;;;;;;;8.43;6.73;;;16.00;99.90;;;;;;6101150;29;20282;-71
2021/07/03 00:36:38;;;;;;;9.73;8.10;;;16.00;99.90;;;;;;6071452;29;20200;-71
2021/07/03 00:39:40;;;;;;;8.53;6.13;;;16.00;99.90;;;;;;6103054;29;20227;-71
2021/07/03 00:42:43;;;;;;;9.70;6.50;;;16.00;99.90;;;;;;6103671;29;20547;-72
2021/07/03 00:45:46;;;;;;;8.20;6.83;;;16.00;99.90;;;;;;6086171;29;20207;-71
2021/07/03 00:48:49;;;;;;;9.73;7.23;;;16.00;99.90;;;;;;6103685;29;20199;-71
2021/07/03 00:51:54;;;;;;;10.33;7.20;;;16.00;99.90;;;;;;6086473;29;20181;-71
2021/07/03 00:54:57;;;;;;;9.73;7.17;;;16.00;99.90;;;;;;6086164;29;20546;-71
2021/07/03 00:58:00;;;;;;;6.83;6.13;;;16.00;99.90;;;;;;6086404;29;20283;-72
2021/07/03 01:01:07;;;;;;;8.83;6.23;;;16.00;99.90;;;;;;6102333;29;20204;-71
2021/07/03 01:04:10;;;;;;;8.43;6.83;;;16.00;99.90;;;;;;6084884;29;20581;-72
2021/07/03 01:07:13;;;;;;;8.60;7.13;;;16.00;99.90;;;;;;6078054;29;20288;-70
2021/07/03 01:10:22;;;;;;;10.07;6.43;;;16.00;99.90;;;;;;6078198;29;20202;-70
2021/07/03 01:13:32;;;;;;;8.10;5.53;;;16.00;99.90;;;;;;6079756;29;20181;-70
2021/07/03 01:16:46;;;;;;;8.33;5.80;;;16.00;99.90;;;;;;6077732;29;20208;-71
2021/07/03 01:19:50;;;;;;;8.57;7.07;;;16.00;99.90;;;;;;6078284;29;20212;-71
2021/07/03 01:22:55;;;;;;;8.47;6.97;;;16.00;99.90;;;;;;6078018;29;20169;-70
2021/07/03 01:25:59;;;;;;;9.20;6.97;;;16.00;99.90;;;;;;6077822;29;20205;-71
2021/07/03 01:29:08;;;;;;;8.90;7.03;;;16.00;99.90;;;;;;6078016;29;20729;-71
2021/07/03 01:32:11;;;;;;;9.70;6.50;;;16.00;99.90;;;;;;6073783;29;20227;-71
2021/07/03 01:35:14;;;;;;;11.30;7.60;;;16.00;99.90;;;;;;6077936;29;20207;-71
2021/07/03 01:38:21;;;;;;;7.63;6.30;;;16.00;99.90;;;;;;6061521;29;20208;-71
2021/07/03 01:41:25;;;;;;;7.30;6.43;;;16.00;99.90;;;;;;6077696;29;20196;-71
2021/07/03 01:44:30;;;;;;;8.67;7.30;;;16.00;99.90;;;;;;6076975;29;20221;-72
2021/07/03 01:47:32;;;;;;;7.90;6.07;;;16.00;99.90;;;;;;6078904;29;20193;-71
2021/07/03 01:50:35;;;;;;;9.40;6.37;;;16.00;99.90;;;;;;6077761;29;20605;-73
2021/07/03 01:53:38;;;;;;;7.53;5.40;;;16.00;99.90;;;;;;6077054;29;20228;-71
2021/07/03 01:56:43;;;;;;;5.57;4.90;;;16.00;99.90;;;;;;6077365;29;20213;-71
2021/07/03 01:59:49;;;;;;;9.10;7.90;;;16.00;99.90;;;;;;6077266;29;20194;-73
2021/07/03 02:02:52;;;;;;;10.73;7.93;;;16.00;99.90;;;;;;6077610;29;20647;-71
2021/07/03 02:06:07;;;;;;;8.90;7.80;;;15.90;99.90;;;;;;6084863;29;20687;-71
2021/07/03 02:09:13;;;;;;;9.00;6.87;;;15.90;99.90;;;;;;6084691;29;20200;-71
2021/07/03 02:12:16;;;;;;;8.23;6.80;;;15.80;99.90;;;;;;6085069;29;20619;-71
2021/07/03 02:15:30;;;;;;;10.40;7.77;;;15.80;99.90;;;;;;6084185;29;20675;-71
2021/07/03 02:18:42;;;;;;;11.00;8.40;;;15.80;99.90;;;;;;6078473;29;20280;-70
2021/07/03 02:21:51;;;;;;;8.97;7.93;;;15.80;99.90;;;;;;6077558;29;20296;-71
2021/07/03 02:25:03;;;;;;;10.50;6.90;;;15.80;99.90;;;;;;6076798;29;20213;-70
2021/07/03 02:28:08;;;;;;;8.00;7.07;;;15.80;99.90;;;;;;6076707;29;20205;-71
2021/07/03 02:31:18;;;;;;;10.30;8.20;;;15.80;99.90;;;;;;6074355;29;20203;-72
2021/07/03 02:34:27;;;;;;;10.20;8.07;;;15.80;99.90;;;;;;6061144;29;20200;-71
2021/07/03 02:37:30;;;;;;;8.70;7.23;;;15.80;99.90;;;;;;6077283;29;20545;-71
2021/07/03 02:40:32;;;;;;;9.87;7.80;;;15.80;99.90;;;;;;6077489;29;20236;-71
2021/07/03 02:43:38;;;;;;;8.83;6.57;;;15.80;99.90;;;;;;6061723;29;20205;-71
2021/07/03 02:46:45;;;;;;;8.47;6.90;;;15.80;99.90;;;;;;6076322;29;20328;-71
2021/07/03 02:49:49;;;;;;;10.23;6.13;;;15.80;99.90;;;;;;6076667;29;20205;-71
2021/07/03 02:52:51;;;;;;;8.77;6.13;;;15.80;99.90;;;;;;6060679;29;20671;-71
2021/07/03 02:55:54;;;;;;;9.73;7.00;;;15.80;99.90;;;;;;6077703;29;20200;-71
2021/07/03 02:58:57;;;;;;;10.73;7.53;;;15.80;99.90;;;;;;6076271;29;20243;-71
2021/07/03 03:01:59;;;;;;;8.47;6.80;;;15.80;99.90;;;;;;6086379;29;20200;-70
2021/07/03 03:05:03;;;;;;;8.73;6.27;;;15.80;99.90;;;;;;6076309;29;20213;-72
2021/07/03 03:08:06;;;;;;;9.70;7.40;;;15.80;99.90;;;;;;6077091;29;20275;-71
2021/07/03 03:11:09;;;;;;;8.70;6.07;;;15.80;99.90;;;;;;6076133;29;20200;-72
2021/07/03 03:14:13;;;;;;;11.43;7.27;;;15.80;99.90;;;;;;6077586;29;20189;-72
2021/07/03 03:17:16;;;;;;;8.40;6.10;;;15.80;99.90;;;;;;6075747;29;20204;-71
2021/07/03 03:20:19;;;;;;;9.63;6.97;;;15.70;99.90;;;;;;6077320;29;20195;-71
2021/07/03 03:23:21;;;;;;;8.73;6.20;;;15.70;99.90;;;;;;6077016;29;20679;-71
2021/07/03 03:26:24;;;;;;;9.00;7.03;;;15.80;99.90;;;;;;6076079;29;20561;-70
2021/07/03 03:29:26;;;;;;;8.40;6.93;;;15.80;99.90;;;;;;6075484;29;20284;-71
2021/07/03 03:32:31;;;;;;;9.47;6.83;;;15.80;99.90;;;;;;6069364;29;20201;-71
2021/07/03 03:35:33;;;;;;;8.57;6.77;;;15.80;99.90;;;;;;6075758;29;20706;-71
2021/07/03 03:38:40;;;;;;;8.73;6.53;;;15.80;99.90;;;;;;6037148;29;20263;-70
2021/07/03 03:41:43;;;;;;;9.13;6.17;;;15.80;99.90;;;;;;6053765;29;20193;-71
2021/07/03 03:44:47;;;;;;;6.23;5.17;;;15.90;99.90;;;;;;6051871;29;20228;-70
2021/07/03 03:47:50;;;;;;;7.03;6.33;;;15.90;99.90;;;;;;6055745;29;20201;-71
2021/07/03 03:50:53;;;;;;;8.80;6.67;;;15.90;99.90;;;;;;6056683;29;20284;-71
2021/07/03 03:53:56;;;;;;;10.43;6.30;;;15.80;99.90;;;;;;6057918;29;20225;-71
2021/07/03 04:00:22;;;;;;;8.67;6.00;;;15.80;99.90;;;;;;6055997;29;20198;-70
2021/07/03 04:03:34;;;;;;;8.77;6.47;;;15.80;99.90;;;;;;6101385;29;20200;-71
2021/07/03 04:06:38;;;;;;;8.87;6.40;;;15.90;99.90;;;;;;6086860;29;20256;-70
2021/07/03 04:09:41;;;;;;;7.40;5.53;;;15.80;99.90;;;;;;6103909;29;20192;-71
2021/07/03 04:12:45;;;;;;;8.03;6.47;;;15.80;99.90;;;;;;6087578;29;20271;-70
2021/07/03 04:15:47;;;;;;;7.33;6.17;;;15.80;99.90;;;;;;6103757;29;20238;-70
2021/07/03 04:18:49;;;;;;;7.07;6.20;;;15.90;99.90;;;;;;6089078;29;20774;-70
2021/07/03 04:21:52;;;;;;;6.77;6.07;;;15.90;99.90;;;;;;6080053;29;20542;-71
2021/07/03 04:24:54;;;;;;;8.87;6.13;;;15.80;99.90;;;;;;6080383;29;20217;-71
2021/07/03 04:27:56;;;;;;;6.83;6.13;;;15.90;99.90;;;;;;6079123;29;20212;-71
2021/07/03 04:30:58;;;;;;;6.93;6.13;;;15.90;99.90;;;;;;6079936;29;20291;-71
2021/07/03 04:34:01;;;;;;;8.00;6.20;;;15.90;99.90;;;;;;6048056;29;20648;-70
2021/07/03 04:37:03;;;;;;;5.83;5.17;;;15.90;99.90;;;;;;6079902;29;20196;-70
2021/07/03 04:40:07;;;;;;;7.80;5.30;;;16.00;99.90;;;;;;6062964;29;20232;-71
2021/07/03 04:43:10;;;;;;;6.27;5.57;;;16.00;99.90;;;;;;6063511;29;20315;-70
2021/07/03 04:46:12;;;;;;;7.40;5.60;;;16.00;99.90;;;;;;6062617;29;20221;-71
2021/07/03 04:49:16;;;;;;;6.67;5.93;;;16.00;99.90;;;;;;6062980;29;20214;-71
2021/07/03 04:52:19;;;;;;;7.10;5.80;;;16.10;99.90;;;;;;6079417;29;20196;-70
2021/07/03 04:55:21;;;;;;;7.83;5.83;;;16.10;99.90;;;;;;6079768;29;20422;-71
2021/07/03 04:58:23;;;;;;;8.53;5.87;;;16.10;99.90;;;;;;6079049;29;20565;-70
2021/07/03 05:01:25;;;;;;;8.13;6.13;;;16.10;99.90;;;;;;6084340;29;20259;-70
2021/07/03 05:04:28;;;;;;;9.20;6.23;;;16.20;99.90;;;;;;6099302;29;20312;-70
2021/07/03 05:07:30;;;;;;;7.57;6.67;;;16.20;99.90;;;;;;6078048;29;20737;-71
2021/07/03 05:10:39;;;;;;;7.20;5.90;;;16.30;99.90;;;;;;6079090;29;20189;-70
2021/07/03 05:13:41;;;;;;;7.63;6.13;;;16.30;99.90;;;;;;6079134;29;20560;-71
2021/07/03 05:16:44;;;;;;;7.17;6.40;;;16.40;99.90;;;;;;6078237;29;20184;-71
2021/07/03 05:19:46;;;;;;;11.70;6.77;;;16.40;99.90;;;;;;6079209;29;20193;-71
2021/07/03 05:22:48;;;;;;;6.63;5.83;;;16.50;99.90;;;;;;6077488;29;20204;-71
2021/07/03 05:25:53;;;;;;;9.10;6.53;;;16.50;99.90;;;;;;6077797;29;20204;-70
2021/07/03 05:28:55;;;;;;;10.87;6.20;;;16.60;99.90;;;;;;6077415;29;20791;-71
2021/07/03 05:31:57;;;;;;;8.47;5.83;;;16.60;99.90;;;;;;6078669;29;20622;-70
2021/07/03 05:34:59;;;;;;;11.17;6.40;;;16.60;99.90;;;;;;6078938;29;20197;-71
2021/07/03 05:38:02;;;;;;;8.70;6.37;;;16.60;99.90;;;;;;6061469;29;20657;-71
2021/07/03 05:41:04;;;;;;;10.70;6.37;;;16.70;99.90;;;;;;6078521;29;20247;-70
2021/07/03 05:44:07;;;;;;;8.87;6.10;;;16.70;99.90;;;;;;6078341;29;20220;-72
2021/07/03 05:47:10;;;;;;;7.67;5.47;;;16.70;99.90;;;;;;6077327;29;20198;-72
2021/07/03 05:50:12;;;;;;;8.43;5.80;;;16.80;99.90;;;;;;6076988;29;20189;-71
2021/07/03 05:53:14;;;;;;;7.60;5.33;;;16.80;99.90;;;;;;6077149;29;20275;-72
2021/07/03 05:56:16;;;;;;;8.27;5.67;;;16.80;99.90;;;;;;6078488;29;20579;-71
2021/07/03 05:59:19;;;;;;;7.30;4.97;;;16.90;99.90;;;;;;6076631;29;20290;-71
2021/07/03 06:02:21;;;;;;;7.27;5.90;;;17.00;99.90;;;;;;6084886;29;20279;-71
2021/07/03 06:05:23;;;;;;;7.00;5.77;;;17.00;99.90;;;;;;6083942;29;20707;-71
2021/07/03 06:08:25;;;;;;;7.97;6.40;;;17.10;99.90;;;;;;6101694;29;20300;-70
2021/07/03 06:11:28;;;;;;;8.83;6.50;;;17.20;99.90;;;;;;6100711;29;20195;-72
2021/07/03 06:14:30;;;;;;;8.47;6.00;;;17.20;99.90;;;;;;6083964;29;20196;-71
2021/07/03 06:17:32;;;;;;;6.10;5.47;;;17.30;99.90;;;;;;6079670;29;20193;-72
2021/07/03 06:20:34;;;;;;;6.73;6.03;;;17.40;99.90;;;;;;6076212;29;20196;-71
2021/07/03 06:23:37;;;;;;;6.43;5.63;;;17.50;99.90;;;;;;6077928;29;20291;-71
2021/07/03 06:26:40;;;;;;;7.63;5.67;;;17.50;99.90;;;;;;6076680;29;20231;-71
2021/07/03 06:29:43;;;;;;;7.07;5.33;;;17.60;99.90;;;;;;6077412;29;20200;-71
2021/07/03 06:32:45;;;;;;;8.47;5.90;;;17.70;99.90;;;;;;6077625;29;20207;-71
2021/07/03 06:35:47;;;;;;;7.57;5.60;;;17.80;99.90;;;;;;6077196;29;20192;-72
2021/07/03 06:38:50;;;;;;;6.40;5.70;;;17.90;99.90;;;;;;6060540;29;20268;-71
2021/07/03 06:41:52;;;;;;;6.03;5.40;;;18.00;99.90;;;;;;6077017;29;20189;-71
2021/07/03 06:44:54;;;;;;;6.70;5.17;;;18.10;99.90;;;;;;6077519;29;20681;-72
2021/07/03 06:47:56;;;;;;;5.57;4.97;;;18.20;99.90;;;;;;6077430;29;20340;-71
2021/07/03 06:50:59;;;;;;;8.73;6.10;;;18.30;99.90;;;;;;6060319;29;20191;-71
2021/07/03 06:54:03;;;;;;;6.60;5.23;;;18.40;99.90;;;;;;6060874;29;20275;-71
2021/07/03 06:57:08;;;;;;;6.30;5.60;;;18.50;99.90;;;;;;6060433;29;20321;-71
2021/07/03 07:00:11;;;;;;;5.30;4.80;;;18.40;99.90;;;;;;6060158;29;20563;-71
2021/07/03 07:03:14;;;;;;;8.07;5.77;;;18.30;99.90;;;;;;6096106;29;20203;-71
2021/07/03 07:06:16;;;;;;;5.70;4.70;;;18.30;99.90;;;;;;6075646;29;20215;-71
2021/07/03 07:09:18;;;;;;;5.43;4.90;;;18.40;99.90;;;;;;6075831;29;20207;-71
2021/07/03 07:12:21;;;;;;;5.20;4.57;;;18.40;99.90;;;;;;6076801;29;20193;-71
2021/07/03 07:15:23;;;;;;;5.10;4.60;;;18.50;99.90;;;;;;6077058;29;20193;-70
2021/07/03 07:18:25;;;;;;;7.07;4.00;;;18.70;99.90;;;;;;6060500;29;20204;-70
2021/07/03 07:21:28;;;;;;;5.17;4.20;;;18.90;99.90;;;;;;6076683;29;20275;-70
2021/07/03 07:24:30;;;;;;;4.47;3.80;;;19.00;99.90;;;;;;6080283;29;20228;-71
2021/07/03 07:27:33;;;;;;;4.73;3.87;;;19.10;99.90;;;;;;6081419;29;20193;-72
2021/07/03 07:30:35;;;;;;;3.80;3.00;;;19.20;99.90;;;;;;6080264;29;20740;-71
2021/07/03 07:33:37;;;;;;;3.33;2.83;;;19.30;99.90;;;;;;6081073;29;20201;-71
2021/07/03 07:36:39;;;;;;;3.00;2.70;;;19.80;99.90;;;;;;6081686;29;20197;-71
2021/07/03 07:39:42;;;;;;;2.10;1.90;;;19.90;99.90;;;;;;6081011;29;20236;-70
2021/07/03 07:42:44;;;;;;;3.20;2.90;;;19.90;99.90;;;;;;6064169;29;20197;-71
2021/07/03 07:45:46;;;;;;;4.63;2.90;;;19.80;99.90;;;;;;6079764;29;20233;-70
2021/07/03 07:48:49;;;;;;;3.27;2.97;;;20.10;99.90;;;;;;6080802;29;20200;-70
2021/07/03 07:51:51;;;;;;;3.47;2.60;;;20.40;99.90;;;;;;6080986;29;20196;-71
2021/07/03 07:54:53;;;;;;;2.90;2.70;;;20.40;99.50;;;;;;6064547;29;20234;-71
2021/07/03 07:57:55;;;;;;;2.53;2.33;;;20.40;99.70;;;;;;6080975;29;20807;-70
2021/07/03 08:00:58;;;;;;;3.00;2.70;;;20.60;99.60;;;;;;6082069;29;20200;-71
2021/07/03 08:04:00;;;;;;;2.73;2.53;;;20.90;98.80;;;;;;6099759;29;20204;-71
2021/07/03 08:07:03;;;;;;;3.10;2.80;;;21.20;98.10;;;;;;6080717;29;20216;-71
2021/07/03 08:10:07;;;;;;;3.17;2.87;;;21.60;96.80;;;;;;6080988;29;20200;-71
2021/07/03 08:13:09;;;;;;;2.70;2.50;;;21.90;96.10;;;;;;6063286;29;20209;-71
2021/07/03 08:16:11;;;;;;;2.90;2.60;;;22.20;94.70;;;;;;6078586;29;20212;-71
2021/07/03 08:19:14;;;;;;;3.23;2.60;;;22.50;94.00;;;;;;6068439;29;20568;-70
2021/07/03 08:22:16;;;;;;;2.83;2.60;;;22.80;93.60;;;;;;6080380;29;20200;-71
2021/07/03 08:25:20;;;;;;;2.30;2.10;;;23.20;93.10;;;;;;6080128;29;20550;-70
2021/07/03 08:28:22;;;;;;;2.67;2.47;;;23.40;91.40;;;;;;6079962;29;20196;-71
2021/07/03 08:31:24;;;;;;;3.07;2.53;;;23.50;90.50;;;;;;6052527;29;20208;-70
2021/07/03 08:34:27;;;;;;;3.07;1.80;;;23.70;89.60;;;;;;6102087;29;20203;-71
2021/07/03 08:37:29;;;;;;;2.50;1.77;;;23.70;87.30;;;;;;6103590;29;20672;-71
2021/07/03 08:40:32;;;;;;;1.80;1.70;;;23.80;85.20;;;;;;6102737;29;20290;-71
2021/07/03 08:43:42;;;;;;;2.20;1.97;;;24.00;85.10;;;;;;6103379;29;20187;-71
2021/07/03 08:46:45;;;;;;;1.90;1.80;;;24.20;84.30;;;;;;6103210;29;20228;-71
2021/07/03 08:49:57;;;;;;;2.70;2.43;;;24.30;81.60;;;;;;6070365;29;20200;-70
2021/07/03 08:53:00;;;;;;;2.80;2.30;;;24.40;80.40;;;;;;6085993;29;20189;-71
2021/07/03 08:56:02;;;;;;;2.50;2.30;;;24.50;81.90;;;;;;6098157;29;20205;-70
2021/07/03 08:59:20;;;;;;;3.03;2.73;;;24.80;80.50;;;;;;6062830;29;20247;-70
2021/07/03 09:02:35;;;;;;;3.23;2.40;;;25.10;77.00;;;;;;6074839;29;20207;-70
2021/07/03 09:05:38;;;;;;;2.60;2.40;;;24.90;75.10;;;;;;6076689;29;20220;-71
2021/07/03 09:08:51;;;;;;;2.07;1.97;;;24.60;75.10;;;;;;6079227;29;20661;-71
2021/07/03 09:11:54;;;;;;;2.60;2.40;;;24.80;76.90;;;;;;6046578;29;20224;-70
2021/07/03 09:15:13;;;;;;;3.23;2.30;;;25.20;73.90;;;;;;6079067;29;20200;-70
2021/07/03 09:18:16;;;;;;;2.70;2.50;;;25.20;70.40;;;;;;6077264;29;20459;-71
2021/07/03 09:21:20;;;;;;;4.50;2.53;;;24.90;73.20;;;;;;6078720;29;20193;-71
2021/07/03 09:24:29;;;;;;;2.83;2.50;;;25.10;73.20;;;;;;6061388;29;20217;-71
2021/07/03 09:27:32;;;;;;;2.92;2.20;;;25.40;72.80;;;;;;6078407;29;20676;-70
2021/07/03 09:30:34;;;;;;;2.30;2.08;;;25.90;72.20;;;;;;6078447;29;20195;-69
2021/07/03 09:33:39;;;;;;;2.60;2.40;;;26.20;70.50;;;;;;6100390;29;20195;-69
2021/07/03 09:36:41;;;;;;;3.78;2.58;;;26.60;68.20;;;;;;6085063;29;20893;-70
2021/07/03 09:39:43;;;;;;;2.72;2.50;;;26.80;66.00;;;;;;6076617;29;20228;-71
2021/07/03 09:42:46;;;;;;;3.45;2.58;;;26.60;66.40;;;;;;6077077;29;20214;-72
2021/07/03 09:45:49;;;;;;;2.78;2.22;;;26.80;65.90;;;;;;6078234;29;20217;-71
2021/07/03 09:48:53;;;;;;;2.28;2.05;;;26.90;65.30;;;;;;6076647;29;20212;-70
2021/07/03 09:51:59;;;;;;;2.58;2.00;;;26.90;64.50;;;;;;6078290;29;20201;-71
2021/07/03 09:55:04;;;;;;;1.98;1.88;;;27.30;64.50;;;;;;6078070;29;20193;-71
2021/07/03 09:58:08;;;;;;;3.53;2.00;;;27.60;62.90;;;;;;6077693;29;20670;-71
2021/07/03 10:01:11;;;;;;;3.00;2.65;;;28.00;63.10;;;;;;6076580;29;20253;-70
2021/07/03 10:04:13;;;;;;;2.50;2.28;;;28.10;60.80;;;;;;6077580;29;20307;-71
2021/07/03 10:07:24;;;;;;;2.58;2.20;;;28.20;60.20;;;;;;6078404;29;20530;-70
2021/07/03 10:10:28;;;;;;;4.07;2.50;;;28.70;59.70;;;;;;6077491;29;20185;-72
2021/07/03 10:13:33;;;;;;;2.50;2.10;;;28.60;58.20;;;;;;6060890;29;20199;-71
2021/07/03 10:16:36;;;;;;;2.22;2.03;;;28.00;59.50;;;;;;6060952;29;20208;-71
2021/07/03 10:19:40;;;;;;;3.15;2.38;;;28.00;59.80;;;;;;6077735;29;20222;-71
2021/07/03 10:22:55;;;;;;;2.03;1.92;;;28.20;61.00;;;;;;6077899;29;20797;-73
2021/07/03 10:25:57;;;;;;;4.82;4.43;;;28.70;58.80;;;;;;6076954;29;20207;-74
2021/07/03 10:28:59;;;;;;;3.03;2.72;;;29.20;58.10;;;;;;6077342;29;20275;-70
2021/07/03 10:32:01;;;;;;;2.83;2.63;;;29.20;56.70;;;;;;6067285;29;20204;-71
2021/07/03 10:35:19;;;;;;;3.13;2.50;;;28.80;56.80;;;;;;6083771;29;20204;-70
2021/07/03 10:38:30;;;;;;;2.28;2.08;;;29.00;57.10;;;;;;6083694;29;20552;-72
2021/07/03 10:41:35;;;;;;;2.95;2.53;;;29.60;55.50;;;;;;6100333;29;20201;-70
2021/07/03 10:44:42;;;;;;;2.65;2.42;;;29.70;54.60;;;;;;6077701;29;20594;-71
2021/07/03 10:47:44;;;;;;;3.60;2.85;;;29.00;54.70;;;;;;6075581;29;20665;-71
2021/07/03 10:50:48;;;;;;;4.43;2.35;;;28.70;56.50;;;;;;6075898;29;20215;-71
2021/07/03 10:53:50;;;;;;;3.38;2.58;;;29.20;54.80;;;;;;6077469;29;20264;-71
2021/07/03 10:57:03;;;;;;;2.75;2.42;;;29.30;53.10;;;;;;6076504;29;20256;-70
2021/07/03 11:00:06;;;;;;;2.50;2.30;;;29.50;53.20;;;;;;6090404;29;20209;-70
2021/07/03 11:03:16;;;;;;;4.18;2.28;;;29.60;51.80;;;;;;6076656;29;20209;-71
2021/07/03 11:06:21;;;;;;;3.25;2.95;;;29.30;51.70;;;;;;6077055;29;20217;-72
2021/07/03 11:09:30;;;;;;;2.67;2.47;;;29.50;52.80;;;;;;6076620;29;20303;-71
2021/07/03 11:12:44;;;;;;;2.70;2.50;;;29.50;51.30;;;;;;6075662;29;20189;-70
2021/07/03 11:15:47;;;;;;;2.40;2.20;;;29.50;51.10;;;;;;6075262;29;20200;-71
2021/07/03 11:18:49;;;;;;;3.08;2.22;;;29.10;51.50;;;;;;6077036;29;20207;-71
2021/07/03 11:21:52;;;;;;;4.50;2.90;;;29.30;53.30;;;;;;6076719;29;20195;-70
2021/07/03 11:24:56;;;;;;;2.88;2.67;;;29.60;50.40;;;;;;6075264;29;20196;-71
2021/07/03 11:28:10;;;;;;;3.67;2.90;;;30.00;50.20;;;;;;6075698;29;20217;-70
2021/07/03 11:31:12;;;;;;;2.78;2.50;;;30.50;49.10;;;;;;6075220;29;20205;-70
2021/07/03 11:34:17;;;;;;;2.60;2.40;;;30.60;47.90;;;;;;6076588;29;20193;-70
2021/07/03 11:37:35;;;;;;;3.13;2.55;;;31.00;47.80;;;;;;6060210;29;20205;-70
2021/07/03 11:40:37;;;;;;;3.05;2.78;;;31.40;46.70;;;;;;6028603;29;20234;-71
2021/07/03 11:43:39;;;;;;;2.88;2.40;;;30.80;47.90;;;;;;6044571;29;20269;-70
2021/07/03 11:46:50;;;;;;;2.58;2.38;;;30.90;47.10;;;;;;6030011;29;20221;-71
2021/07/03 11:49:52;;;;;;;2.90;2.55;;;31.30;46.40;;;;;;6030465;29;20227;-70
2021/07/03 11:52:56;;;;;;;3.00;2.70;;;31.20;46.40;;;;;;6044005;29;20182;-71
2021/07/03 11:56:03;;;;;;;2.40;2.20;;;30.80;46.30;;;;;;6044507;29;20225;-71
2021/07/03 11:59:06;;;;;;;3.20;2.60;;;31.10;47.30;;;;;;6029227;29;20214;-70
2021/07/03 12:02:08;;;;;;;5.18;2.80;;;31.50;45.60;;;;;;6049675;29;20231;-71
2021/07/03 12:05:13;;;;;;;2.20;2.00;;;31.30;45.10;;;;;;6076591;29;20333;-71
2021/07/03 12:08:17;;;;;;;3.10;2.80;;;31.40;45.60;;;;;;6076008;29;20228;-70
2021/07/03 12:11:20;;;;;;;2.50;2.13;;;31.80;45.20;;;;;;6079065;29;20219;-71
2021/07/03 12:14:26;;;;;;;2.90;2.33;;;31.90;44.90;;;;;;6080430;29;20260;-71
2021/07/03 12:17:28;;;;;;;4.28;2.72;;;32.10;44.50;;;;;;6074350;29;20212;-71
2021/07/03 12:20:31;;;;;;;3.28;2.80;;;32.40;43.90;;;;;;6056779;29;20666;-71
2021/07/03 12:23:35;;;;;;;3.13;2.80;;;32.30;43.10;;;;;;6056670;29;20219;-70
2021/07/03 12:26:42;;;;;;;2.60;2.25;;;32.20;43.00;;;;;;6039490;29;20218;-71
2021/07/03 12:29:44;;;;;;;2.55;2.35;;;32.30;43.10;;;;;;6051934;29;20647;-70
2021/07/03 12:32:47;;;;;;;3.00;2.80;;;31.70;42.70;;;;;;6050804;29;20212;-71
2021/07/03 12:35:55;;;;;;;3.05;2.85;;;31.30;42.80;;;;;;6055365;29;20348;-70
2021/07/03 12:39:05;;;;;;;2.90;2.70;;;31.30;44.70;;;;;;6049742;29;20385;-70
2021/07/03 12:42:12;;;;;;;2.75;2.55;;;31.40;44.60;;;;;;6077660;29;20420;-70
2021/07/03 12:45:14;;;;;;;2.78;2.58;;;31.90;43.10;;;;;;6061180;29;20205;-70
2021/07/03 12:48:16;;;;;;;3.40;3.10;;;32.20;42.30;;;;;;6079790;29;20196;-71
2021/07/03 12:51:19;;;;;;;3.60;3.28;;;32.20;42.60;;;;;;6077987;29;20728;-71
2021/07/03 12:54:25;;;;;;;3.20;2.88;;;31.80;42.70;;;;;;6062171;29;20205;-70
2021/07/03 12:57:44;;;;;;;3.55;2.80;;;31.50;44.00;;;;;;6047435;29;20348;-70
2021/07/03 13:00:47;;;;;;;3.20;2.90;;;31.70;43.00;;;;;;6078831;29;20197;-70
2021/07/03 13:03:49;;;;;;;3.33;3.03;;;31.90;43.30;;;;;;6079073;29;20201;-69
2021/07/03 13:07:06;;;;;;;4.13;2.53;;;32.20;42.10;;;;;;6079032;29;20227;-73
2021/07/03 13:10:13;;;;;;;3.05;2.72;;;32.70;42.00;;;;;;6079953;29;20682;-69
2021/07/03 13:13:16;;;;;;;2.85;2.65;;;33.20;41.30;;;;;;6077510;29;20835;-71
2021/07/03 13:16:18;;;;;;;3.40;3.10;;;33.00;41.20;;;;;;6059951;29;20208;-70
2021/07/03 13:19:20;;;;;;;3.55;3.10;;;32.60;41.70;;;;;;6077553;29;20283;-71
2021/07/03 13:22:22;;;;;;;4.65;2.80;;;32.10;40.80;;;;;;6077529;29;20208;-70
2021/07/03 13:25:25;;;;;;;3.22;2.92;;;31.90;41.40;;;;;;6078379;29;20193;-70
2021/07/03 13:28:27;;;;;;;4.32;2.95;;;32.30;41.70;;;;;;6078473;29;20197;-70
2021/07/03 13:31:30;;;;;;;3.25;2.95;;;32.60;41.60;;;;;;6062529;29;20203;-70
2021/07/03 13:34:32;;;;;;;3.33;3.03;;;32.60;41.60;;;;;;6079466;29;20191;-70
2021/07/03 13:37:34;;;;;;;3.15;2.90;;;32.30;41.90;;;;;;6040548;29;20202;-70
2021/07/03 13:40:36;;;;;;;4.10;3.00;;;32.00;43.00;;;;;;6076665;29;20251;-70
2021/07/03 13:43:40;;;;;;;4.32;2.90;;;32.20;41.90;;;;;;6061456;29;20215;-71
2021/07/03 13:46:42;;;;;;;4.20;2.92;;;32.90;41.30;;;;;;6078287;29;20209;-70
2021/07/03 13:49:45;;;;;;;3.78;2.78;;;33.10;40.40;;;;;;6076709;29;20247;-70
2021/07/03 13:52:47;;;;;;;3.17;2.88;;;32.90;40.70;;;;;;6060884;29;20277;-71
2021/07/03 13:55:53;;;;;;;3.20;2.90;;;33.30;40.90;;;;;;6061670;29;20195;-70
2021/07/03 13:58:55;;;;;;;3.40;3.10;;;34.00;39.80;;;;;;6061023;29;20296;-71
2021/07/03 14:01:57;;;;;;;4.05;2.78;;;34.60;38.50;;;;;;6070401;29;20199;-70
2021/07/03 14:05:00;;;;;;;3.28;2.97;;;35.20;38.40;;;;;;6078696;29;20196;-71
2021/07/03 14:08:02;;;;;;;3.20;3.00;;;35.70;37.70;;;;;;6077171;29;20213;-71
2021/07/03 14:11:05;;;;;;;3.50;2.90;;;36.20;36.90;;;;;;6061299;29;20201;-70
2021/07/03 14:14:07;;;;;;;3.50;3.20;;;36.40;36.10;;;;;;6044452;29;20657;-71
2021/07/03 14:17:09;;;;;;;2.92;2.72;;;36.20;36.90;;;;;;6077743;29;20205;-71
2021/07/03 14:20:12;;;;;;;3.17;2.88;;;35.80;36.70;;;;;;6077591;29;20197;-70
2021/07/03 14:23:14;;;;;;;4.20;3.10;;;35.90;36.50;;;;;;6077921;29;20718;-73
2021/07/03 14:26:17;;;;;;;3.40;3.10;;;36.30;36.40;;;;;;6046328;29;20908;-72
2021/07/03 14:29:19;;;;;;;3.28;2.97;;;36.90;36.50;;;;;;6078016;29;20196;-72
2021/07/03 14:32:21;;;;;;;3.15;2.85;;;37.40;35.40;;;;;;6089565;29;20234;-72
2021/07/03 14:35:24;;;;;;;3.25;2.58;;;38.00;34.50;;;;;;6047447;29;20204;-73
2021/07/03 14:38:26;;;;;;;2.88;2.40;;;38.10;33.30;;;;;;6078703;29;20220;-75
2021/07/03 14:41:28;;;;;;;3.58;2.88;;;38.00;33.70;;;;;;6080941;29;20211;-74
2021/07/03 14:44:31;;;;;;;3.00;2.70;;;37.70;33.50;;;;;;6068495;29;20192;-74
2021/07/03 14:47:33;;;;;;;7.32;3.03;;;37.80;33.00;;;;;;6078195;29;20212;-74
2021/07/03 14:50:36;;;;;;;2.88;2.60;;;38.30;32.20;;;;;;6076604;29;20208;-74
2021/07/03 14:53:38;;;;;;;3.67;2.85;;;38.80;31.60;;;;;;6078035;29;20539;-74
2021/07/03 14:56:41;;;;;;;4.28;3.00;;;39.10;32.00;;;;;;6077423;29;20708;-75
2021/07/03 14:59:43;;;;;;;4.15;2.95;;;39.50;31.60;;;;;;6061240;29;20208;-72
2021/07/03 15:02:45;;;;;;;2.78;2.58;;;38.90;31.70;;;;;;6083379;29;20196;-74
2021/07/03 15:05:48;;;;;;;2.97;2.72;;;38.90;31.70;;;;;;6086892;29;20242;-72
2021/07/03 15:08:50;;;;;;;4.28;3.33;;;39.40;31.30;;;;;;6061654;29;20201;-72
2021/07/03 15:11:52;;;;;;;3.05;2.85;;;39.60;30.90;;;;;;6061585;29;20197;-71
2021/07/03 15:14:55;;;;;;;4.70;2.90;;;40.00;31.00;;;;;;6076945;29;20657;-71
2021/07/03 15:17:57;;;;;;;5.68;3.10;;;40.40;30.80;;;;;;6055877;29;20553;-75
2021/07/03 15:20:59;;;;;;;2.83;2.63;;;40.30;30.50;;;;;;6078151;29;20197;-74
2021/07/03 15:24:01;;;;;;;3.20;2.90;;;40.20;30.70;;;;;;6077998;29;20323;-73
2021/07/03 15:27:04;;;;;;;3.65;2.83;;;40.00;31.00;;;;;;6076692;29;20677;-75
2021/07/03 15:30:09;;;;;;;3.85;3.05;;;39.70;30.10;;;;;;6077895;29;20197;-74
2021/07/03 15:33:12;;;;;;;3.45;3.10;;;39.60;31.40;;;;;;6066667;29;20280;-75
2021/07/03 15:36:15;;;;;;;3.30;3.10;;;39.80;30.50;;;;;;6077877;29;20201;-73
2021/07/03 15:39:17;;;;;;;6.00;3.40;;;40.10;30.90;;;;;;6053375;29;20238;-73
2021/07/03 15:42:19;;;;;;;3.42;2.97;;;40.20;30.60;;;;;;6037881;29;20201;-73
2021/07/03 15:45:22;;;;;;;5.03;2.92;;;40.40;30.50;;;;;;6057629;29;20209;-74
2021/07/03 15:48:25;;;;;;;2.58;2.38;;;40.40;30.40;;;;;;6058016;29;20221;-70
2021/07/03 15:51:28;;;;;;;4.88;2.70;;;40.50;30.40;;;;;;6058647;29;20701;-73
2021/07/03 15:54:30;;;;;;;3.63;3.15;;;40.80;30.00;;;;;;6057835;29;20197;-73
2021/07/03 15:57:33;;;;;;;3.10;2.80;;;40.80;30.70;;;;;;6058556;29;20224;-73